sensor_id;sensor_type;location;lat;lon;timestamp;P1;durP1;ratioP1;P2;durP2;ratioP2
7365;SDS011;3723;52.220;8.792;2023-11-21T00:00:15;12.80;;;4.10;;
7365;SDS011;3723;52.220;8.792;2023-11-21T00:02:44;16.00;;;5.20;;
7365;SDS011;3723;52.220;8.792;2023-11-21T00:05:11;17.80;;;8.03;;
7365;SDS011;3723;52.220;8.792;2023-11-21T00:07:40;15.93;;;5.13;;
7365;SDS011;3723;52.220;8.792;2023-11-21T00:10:08;16.30;;;4.33;;
7365;SDS011;3723;52.220;8.792;2023-11-21T00:12:37;11.30;;;3.90;;
7365;SDS011;3723;52.220;8.792;2023-11-21T00:15:07;15.80;;;4.53;;
7365;SDS011;3723;52.220;8.792;2023-11-21T00:17:36;15.20;;;5.23;;
7365;SDS011;3723;52.220;8.792;2023-11-21T00:20:05;13.57;;;5.23;;
7365;SDS011;3723;52.220;8.792;2023-11-21T00:22:33;12.93;;;3.93;;
7365;SDS011;3723;52.220;8.792;2023-11-21T00:25:00;15.67;;;5.73;;
7365;SDS011;3723;52.220;8.792;2023-11-21T00:27:28;13.60;;;4.70;;
7365;SDS011;3723;52.220;8.792;2023-11-21T00:29:55;12.70;;;3.83;;
7365;SDS011;3723;52.220;8.792;2023-11-21T00:32:22;13.17;;;4.53;;
7365;SDS011;3723;52.220;8.792;2023-11-21T00:34:49;23.43;;;9.50;;
7365;SDS011;3723;52.220;8.792;2023-11-21T00:37:21;20.40;;;7.10;;
7365;SDS011;3723;52.220;8.792;2023-11-21T00:39:49;37.83;;;12.70;;
7365;SDS011;3723;52.220;8.792;2023-11-21T00:42:16;17.63;;;5.93;;
7365;SDS011;3723;52.220;8.792;2023-11-21T00:44:42;13.83;;;5.60;;
7365;SDS011;3723;52.220;8.792;2023-11-21T00:47:09;30.20;;;12.10;;
7365;SDS011;3723;52.220;8.792;2023-11-21T00:49:36;19.20;;;6.47;;
7365;SDS011;3723;52.220;8.792;2023-11-21T00:52:04;16.87;;;5.70;;
7365;SDS011;3723;52.220;8.792;2023-11-21T00:54:33;15.90;;;4.90;;
7365;SDS011;3723;52.220;8.792;2023-11-21T00:57:01;14.57;;;5.80;;
7365;SDS011;3723;52.220;8.792;2023-11-21T00:59:28;14.27;;;5.20;;
7365;SDS011;3723;52.220;8.792;2023-11-21T01:01:55;27.30;;;11.00;;
7365;SDS011;3723;52.220;8.792;2023-11-21T01:04:25;14.87;;;5.20;;
7365;SDS011;3723;52.220;8.792;2023-11-21T01:06:52;16.87;;;6.17;;
7365;SDS011;3723;52.220;8.792;2023-11-21T01:09:19;16.30;;;4.70;;
7365;SDS011;3723;52.220;8.792;2023-11-21T01:11:48;13.33;;;4.77;;
7365;SDS011;3723;52.220;8.792;2023-11-21T01:14:14;22.67;;;7.80;;
7365;SDS011;3723;52.220;8.792;2023-11-21T01:16:42;12.63;;;4.47;;
7365;SDS011;3723;52.220;8.792;2023-11-21T01:19:09;12.23;;;5.00;;
7365;SDS011;3723;52.220;8.792;2023-11-21T01:21:36;15.00;;;4.90;;
7365;SDS011;3723;52.220;8.792;2023-11-21T01:24:04;36.03;;;13.73;;
7365;SDS011;3723;52.220;8.792;2023-11-21T01:26:32;14.20;;;4.90;;
7365;SDS011;3723;52.220;8.792;2023-11-21T01:29:00;38.87;;;12.70;;
7365;SDS011;3723;52.220;8.792;2023-11-21T01:31:27;41.67;;;12.30;;
7365;SDS011;3723;52.220;8.792;2023-11-21T01:33:55;34.10;;;11.87;;
7365;SDS011;3723;52.220;8.792;2023-11-21T01:36:22;32.77;;;11.03;;
7365;SDS011;3723;52.220;8.792;2023-11-21T01:38:49;43.80;;;12.60;;
7365;SDS011;3723;52.220;8.792;2023-11-21T01:41:16;37.50;;;13.27;;
7365;SDS011;3723;52.220;8.792;2023-11-21T01:43:43;32.50;;;12.50;;
7365;SDS011;3723;52.220;8.792;2023-11-21T01:46:11;38.13;;;12.80;;
7365;SDS011;3723;52.220;8.792;2023-11-21T01:48:40;40.67;;;11.10;;
7365;SDS011;3723;52.220;8.792;2023-11-21T01:51:07;21.13;;;5.20;;
7365;SDS011;3723;52.220;8.792;2023-11-21T01:53:34;16.40;;;4.40;;
7365;SDS011;3723;52.220;8.792;2023-11-21T01:56:01;30.33;;;4.93;;
7365;SDS011;3723;52.220;8.792;2023-11-21T01:58:30;16.80;;;5.37;;
7365;SDS011;3723;52.220;8.792;2023-11-21T02:00:58;29.53;;;8.70;;
7365;SDS011;3723;52.220;8.792;2023-11-21T02:03:26;18.70;;;6.37;;
7365;SDS011;3723;52.220;8.792;2023-11-21T02:05:53;20.97;;;5.90;;
7365;SDS011;3723;52.220;8.792;2023-11-21T02:08:20;11.70;;;4.20;;
7365;SDS011;3723;52.220;8.792;2023-11-21T02:10:47;13.90;;;5.10;;
7365;SDS011;3723;52.220;8.792;2023-11-21T02:13:15;25.93;;;7.77;;
7365;SDS011;3723;52.220;8.792;2023-11-21T02:15:42;34.10;;;10.37;;
7365;SDS011;3723;52.220;8.792;2023-11-21T02:18:09;45.03;;;15.10;;
7365;SDS011;3723;52.220;8.792;2023-11-21T02:20:44;27.87;;;9.50;;
7365;SDS011;3723;52.220;8.792;2023-11-21T02:23:15;33.70;;;9.63;;
7365;SDS011;3723;52.220;8.792;2023-11-21T02:25:43;34.50;;;12.00;;
7365;SDS011;3723;52.220;8.792;2023-11-21T02:28:10;25.63;;;9.20;;
7365;SDS011;3723;52.220;8.792;2023-11-21T02:30:37;23.30;;;8.53;;
7365;SDS011;3723;52.220;8.792;2023-11-21T02:33:04;36.87;;;10.83;;
7365;SDS011;3723;52.220;8.792;2023-11-21T02:35:32;16.27;;;5.27;;
7365;SDS011;3723;52.220;8.792;2023-11-21T02:38:00;28.63;;;8.33;;
7365;SDS011;3723;52.220;8.792;2023-11-21T02:40:28;16.80;;;5.20;;
7365;SDS011;3723;52.220;8.792;2023-11-21T02:42:55;14.93;;;5.30;;
7365;SDS011;3723;52.220;8.792;2023-11-21T02:45:24;30.90;;;7.23;;
7365;SDS011;3723;52.220;8.792;2023-11-21T02:47:51;18.30;;;5.77;;
7365;SDS011;3723;52.220;8.792;2023-11-21T02:50:21;25.47;;;5.50;;
7365;SDS011;3723;52.220;8.792;2023-11-21T02:52:48;39.93;;;11.03;;
7365;SDS011;3723;52.220;8.792;2023-11-21T02:55:16;41.63;;;13.23;;
7365;SDS011;3723;52.220;8.792;2023-11-21T02:57:44;19.30;;;6.43;;
7365;SDS011;3723;52.220;8.792;2023-11-21T03:00:11;35.37;;;10.37;;
7365;SDS011;3723;52.220;8.792;2023-11-21T03:02:40;52.00;;;13.30;;
7365;SDS011;3723;52.220;8.792;2023-11-21T03:05:07;33.93;;;11.07;;
7365;SDS011;3723;52.220;8.792;2023-11-21T03:07:35;59.50;;;14.97;;
7365;SDS011;3723;52.220;8.792;2023-11-21T03:10:02;44.03;;;14.93;;
7365;SDS011;3723;52.220;8.792;2023-11-21T03:12:30;60.20;;;14.40;;
7365;SDS011;3723;52.220;8.792;2023-11-21T03:14:58;34.30;;;10.60;;
7365;SDS011;3723;52.220;8.792;2023-11-21T03:17:26;72.43;;;17.03;;
7365;SDS011;3723;52.220;8.792;2023-11-21T03:19:54;37.50;;;10.10;;
7365;SDS011;3723;52.220;8.792;2023-11-21T03:22:22;89.47;;;22.67;;
7365;SDS011;3723;52.220;8.792;2023-11-21T03:24:49;49.47;;;13.30;;
7365;SDS011;3723;52.220;8.792;2023-11-21T03:27:16;31.57;;;8.73;;
7365;SDS011;3723;52.220;8.792;2023-11-21T03:29:43;21.30;;;5.60;;
7365;SDS011;3723;52.220;8.792;2023-11-21T03:32:11;25.03;;;6.00;;
7365;SDS011;3723;52.220;8.792;2023-11-21T03:34:52;44.73;;;11.33;;
7365;SDS011;3723;52.220;8.792;2023-11-21T03:37:20;35.40;;;12.97;;
7365;SDS011;3723;52.220;8.792;2023-11-21T03:39:47;32.37;;;8.67;;
7365;SDS011;3723;52.220;8.792;2023-11-21T03:42:14;46.63;;;11.40;;
7365;SDS011;3723;52.220;8.792;2023-11-21T03:44:41;36.77;;;7.70;;
7365;SDS011;3723;52.220;8.792;2023-11-21T03:47:08;22.90;;;6.50;;
7365;SDS011;3723;52.220;8.792;2023-11-21T03:49:36;33.33;;;8.87;;
7365;SDS011;3723;52.220;8.792;2023-11-21T03:52:04;25.60;;;7.67;;
7365;SDS011;3723;52.220;8.792;2023-11-21T03:54:32;34.27;;;7.10;;
7365;SDS011;3723;52.220;8.792;2023-11-21T03:57:01;33.57;;;9.00;;
7365;SDS011;3723;52.220;8.792;2023-11-21T03:59:28;42.13;;;12.30;;
7365;SDS011;3723;52.220;8.792;2023-11-21T04:01:55;65.60;;;14.57;;
7365;SDS011;3723;52.220;8.792;2023-11-21T04:04:23;19.77;;;7.30;;
7365;SDS011;3723;52.220;8.792;2023-11-21T04:06:51;40.70;;;10.93;;
7365;SDS011;3723;52.220;8.792;2023-11-21T04:09:18;24.20;;;6.23;;
7365;SDS011;3723;52.220;8.792;2023-11-21T04:11:45;61.63;;;15.23;;
7365;SDS011;3723;52.220;8.792;2023-11-21T04:14:12;67.10;;;15.97;;
7365;SDS011;3723;52.220;8.792;2023-11-21T04:16:40;47.33;;;11.17;;
7365;SDS011;3723;52.220;8.792;2023-11-21T04:19:07;57.33;;;14.70;;
7365;SDS011;3723;52.220;8.792;2023-11-21T04:21:35;48.80;;;12.90;;
7365;SDS011;3723;52.220;8.792;2023-11-21T04:24:04;89.03;;;17.40;;
7365;SDS011;3723;52.220;8.792;2023-11-21T04:26:31;62.03;;;14.50;;
7365;SDS011;3723;52.220;8.792;2023-11-21T04:28:58;56.47;;;13.80;;
7365;SDS011;3723;52.220;8.792;2023-11-21T04:31:27;76.67;;;16.57;;
7365;SDS011;3723;52.220;8.792;2023-11-21T04:33:54;77.70;;;16.90;;
7365;SDS011;3723;52.220;8.792;2023-11-21T04:36:21;71.67;;;18.00;;
7365;SDS011;3723;52.220;8.792;2023-11-21T04:38:48;63.97;;;13.50;;
7365;SDS011;3723;52.220;8.792;2023-11-21T04:41:16;93.80;;;18.67;;
7365;SDS011;3723;52.220;8.792;2023-11-21T04:43:43;108.93;;;18.53;;
7365;SDS011;3723;52.220;8.792;2023-11-21T04:46:10;85.60;;;17.80;;
7365;SDS011;3723;52.220;8.792;2023-11-21T04:48:37;115.50;;;20.50;;
7365;SDS011;3723;52.220;8.792;2023-11-21T04:51:04;92.67;;;18.37;;
7365;SDS011;3723;52.220;8.792;2023-11-21T04:53:31;33.67;;;8.80;;
7365;SDS011;3723;52.220;8.792;2023-11-21T04:55:59;67.13;;;15.63;;
7365;SDS011;3723;52.220;8.792;2023-11-21T04:58:28;84.90;;;17.03;;
7365;SDS011;3723;52.220;8.792;2023-11-21T05:00:55;104.23;;;19.50;;
7365;SDS011;3723;52.220;8.792;2023-11-21T05:03:23;107.40;;;20.70;;
7365;SDS011;3723;52.220;8.792;2023-11-21T05:05:51;106.27;;;18.67;;
7365;SDS011;3723;52.220;8.792;2023-11-21T05:08:18;99.03;;;17.60;;
7365;SDS011;3723;52.220;8.792;2023-11-21T05:10:45;41.97;;;8.47;;
7365;SDS011;3723;52.220;8.792;2023-11-21T05:13:13;54.70;;;12.37;;
7365;SDS011;3723;52.220;8.792;2023-11-21T05:15:44;62.80;;;12.80;;
7365;SDS011;3723;52.220;8.792;2023-11-21T05:18:10;76.10;;;15.07;;
7365;SDS011;3723;52.220;8.792;2023-11-21T05:20:39;67.13;;;14.97;;
7365;SDS011;3723;52.220;8.792;2023-11-21T05:23:06;65.83;;;13.10;;
7365;SDS011;3723;52.220;8.792;2023-11-21T05:25:33;44.23;;;9.10;;
7365;SDS011;3723;52.220;8.792;2023-11-21T05:28:01;101.17;;;19.97;;
7365;SDS011;3723;52.220;8.792;2023-11-21T05:30:29;78.83;;;14.70;;
7365;SDS011;3723;52.220;8.792;2023-11-21T05:32:57;99.50;;;16.03;;
7365;SDS011;3723;52.220;8.792;2023-11-21T05:35:24;103.30;;;19.27;;
7365;SDS011;3723;52.220;8.792;2023-11-21T05:37:51;97.23;;;18.77;;
7365;SDS011;3723;52.220;8.792;2023-11-21T05:40:19;101.60;;;17.07;;
7365;SDS011;3723;52.220;8.792;2023-11-21T05:42:47;111.27;;;17.40;;
7365;SDS011;3723;52.220;8.792;2023-11-21T05:45:16;87.03;;;14.77;;
7365;SDS011;3723;52.220;8.792;2023-11-21T05:47:44;61.97;;;11.30;;
7365;SDS011;3723;52.220;8.792;2023-11-21T05:50:14;59.03;;;13.07;;
7365;SDS011;3723;52.220;8.792;2023-11-21T05:52:43;110.00;;;17.90;;
7365;SDS011;3723;52.220;8.792;2023-11-21T05:55:10;76.17;;;12.47;;
7365;SDS011;3723;52.220;8.792;2023-11-21T05:57:38;98.93;;;16.40;;
7365;SDS011;3723;52.220;8.792;2023-11-21T06:00:07;97.33;;;16.83;;
7365;SDS011;3723;52.220;8.792;2023-11-21T06:02:40;101.53;;;17.80;;
7365;SDS011;3723;52.220;8.792;2023-11-21T06:05:07;91.67;;;17.20;;
7365;SDS011;3723;52.220;8.792;2023-11-21T06:07:37;107.67;;;14.90;;
7365;SDS011;3723;52.220;8.792;2023-11-21T06:10:05;127.83;;;18.50;;
7365;SDS011;3723;52.220;8.792;2023-11-21T06:12:35;117.23;;;18.00;;
7365;SDS011;3723;52.220;8.792;2023-11-21T06:15:02;76.23;;;16.30;;
7365;SDS011;3723;52.220;8.792;2023-11-21T06:17:30;124.77;;;19.80;;
7365;SDS011;3723;52.220;8.792;2023-11-21T06:19:57;49.50;;;9.93;;
7365;SDS011;3723;52.220;8.792;2023-11-21T06:22:25;95.73;;;15.80;;
7365;SDS011;3723;52.220;8.792;2023-11-21T06:24:54;78.07;;;15.97;;
7365;SDS011;3723;52.220;8.792;2023-11-21T06:27:21;86.13;;;15.40;;
7365;SDS011;3723;52.220;8.792;2023-11-21T06:29:50;78.23;;;13.77;;
7365;SDS011;3723;52.220;8.792;2023-11-21T06:32:17;82.97;;;15.53;;
7365;SDS011;3723;52.220;8.792;2023-11-21T06:34:45;111.70;;;18.20;;
7365;SDS011;3723;52.220;8.792;2023-11-21T06:37:13;59.80;;;14.17;;
7365;SDS011;3723;52.220;8.792;2023-11-21T06:39:40;99.50;;;18.40;;
7365;SDS011;3723;52.220;8.792;2023-11-21T06:42:08;99.23;;;19.77;;
7365;SDS011;3723;52.220;8.792;2023-11-21T06:44:35;98.47;;;20.40;;
7365;SDS011;3723;52.220;8.792;2023-11-21T06:47:04;85.20;;;16.30;;
7365;SDS011;3723;52.220;8.792;2023-11-21T06:49:31;69.27;;;15.50;;
7365;SDS011;3723;52.220;8.792;2023-11-21T06:51:58;79.40;;;15.57;;
7365;SDS011;3723;52.220;8.792;2023-11-21T06:54:27;127.90;;;19.50;;
7365;SDS011;3723;52.220;8.792;2023-11-21T06:56:54;95.83;;;16.27;;
7365;SDS011;3723;52.220;8.792;2023-11-21T06:59:23;109.40;;;20.63;;
7365;SDS011;3723;52.220;8.792;2023-11-21T07:01:50;94.57;;;16.97;;
7365;SDS011;3723;52.220;8.792;2023-11-21T07:04:19;65.93;;;13.13;;
7365;SDS011;3723;52.220;8.792;2023-11-21T07:06:46;68.30;;;12.93;;
7365;SDS011;3723;52.220;8.792;2023-11-21T07:09:13;75.17;;;11.30;;
7365;SDS011;3723;52.220;8.792;2023-11-21T07:11:40;61.43;;;10.70;;
7365;SDS011;3723;52.220;8.792;2023-11-21T07:14:07;63.33;;;13.10;;
7365;SDS011;3723;52.220;8.792;2023-11-21T07:16:36;55.33;;;11.47;;
7365;SDS011;3723;52.220;8.792;2023-11-21T07:19:03;89.63;;;13.10;;
7365;SDS011;3723;52.220;8.792;2023-11-21T07:21:31;56.27;;;12.20;;
7365;SDS011;3723;52.220;8.792;2023-11-21T07:23:58;77.37;;;14.13;;
7365;SDS011;3723;52.220;8.792;2023-11-21T07:26:26;63.57;;;10.90;;
7365;SDS011;3723;52.220;8.792;2023-11-21T07:28:53;29.57;;;8.60;;
7365;SDS011;3723;52.220;8.792;2023-11-21T07:31:20;53.03;;;10.03;;
7365;SDS011;3723;52.220;8.792;2023-11-21T07:33:49;51.63;;;10.23;;
7365;SDS011;3723;52.220;8.792;2023-11-21T07:36:17;35.47;;;9.57;;
7365;SDS011;3723;52.220;8.792;2023-11-21T07:38:45;37.93;;;8.93;;
7365;SDS011;3723;52.220;8.792;2023-11-21T07:41:12;38.90;;;9.47;;
7365;SDS011;3723;52.220;8.792;2023-11-21T07:43:40;41.83;;;10.13;;
7365;SDS011;3723;52.220;8.792;2023-11-21T07:46:08;33.77;;;9.40;;
7365;SDS011;3723;52.220;8.792;2023-11-21T07:48:36;39.60;;;10.93;;
7365;SDS011;3723;52.220;8.792;2023-11-21T07:51:04;43.30;;;9.90;;
7365;SDS011;3723;52.220;8.792;2023-11-21T07:53:33;37.93;;;9.97;;
7365;SDS011;3723;52.220;8.792;2023-11-21T07:56:02;25.93;;;7.33;;
7365;SDS011;3723;52.220;8.792;2023-11-21T07:58:32;34.13;;;9.17;;
7365;SDS011;3723;52.220;8.792;2023-11-21T08:01:00;28.37;;;8.57;;
7365;SDS011;3723;52.220;8.792;2023-11-21T08:03:29;28.60;;;9.63;;
7365;SDS011;3723;52.220;8.792;2023-11-21T08:05:56;35.13;;;9.40;;
7365;SDS011;3723;52.220;8.792;2023-11-21T08:08:25;31.60;;;8.37;;
7365;SDS011;3723;52.220;8.792;2023-11-21T08:10:52;40.40;;;9.47;;
7365;SDS011;3723;52.220;8.792;2023-11-21T08:13:22;38.40;;;9.17;;
7365;SDS011;3723;52.220;8.792;2023-11-21T08:15:49;36.07;;;8.97;;
7365;SDS011;3723;52.220;8.792;2023-11-21T08:18:17;35.50;;;8.20;;
7365;SDS011;3723;52.220;8.792;2023-11-21T08:20:44;31.83;;;8.73;;
7365;SDS011;3723;52.220;8.792;2023-11-21T08:23:12;44.93;;;11.93;;
7365;SDS011;3723;52.220;8.792;2023-11-21T08:25:43;25.07;;;8.10;;
7365;SDS011;3723;52.220;8.792;2023-11-21T08:28:10;30.67;;;8.10;;
7365;SDS011;3723;52.220;8.792;2023-11-21T08:30:37;33.30;;;7.20;;
7365;SDS011;3723;52.220;8.792;2023-11-21T08:33:04;25.80;;;6.30;;
7365;SDS011;3723;52.220;8.792;2023-11-21T08:35:32;24.53;;;5.73;;
7365;SDS011;3723;52.220;8.792;2023-11-21T08:37:59;26.53;;;6.70;;
7365;SDS011;3723;52.220;8.792;2023-11-21T08:40:25;26.07;;;5.67;;
7365;SDS011;3723;52.220;8.792;2023-11-21T08:42:54;24.00;;;5.67;;
7365;SDS011;3723;52.220;8.792;2023-11-21T08:45:21;26.30;;;6.17;;
7365;SDS011;3723;52.220;8.792;2023-11-21T08:47:48;25.03;;;5.70;;
7365;SDS011;3723;52.220;8.792;2023-11-21T08:50:15;25.73;;;6.30;;
7365;SDS011;3723;52.220;8.792;2023-11-21T08:52:42;23.13;;;5.03;;
7365;SDS011;3723;52.220;8.792;2023-11-21T08:55:12;22.83;;;6.23;;
7365;SDS011;3723;52.220;8.792;2023-11-21T08:57:39;17.93;;;4.80;;
7365;SDS011;3723;52.220;8.792;2023-11-21T09:00:08;19.90;;;5.40;;
7365;SDS011;3723;52.220;8.792;2023-11-21T09:02:36;21.30;;;4.93;;
7365;SDS011;3723;52.220;8.792;2023-11-21T09:05:04;18.17;;;4.90;;
7365;SDS011;3723;52.220;8.792;2023-11-21T09:07:32;18.40;;;4.40;;
7365;SDS011;3723;52.220;8.792;2023-11-21T09:09:59;15.60;;;4.70;;
7365;SDS011;3723;52.220;8.792;2023-11-21T09:12:26;16.40;;;4.53;;
7365;SDS011;3723;52.220;8.792;2023-11-21T09:14:53;14.83;;;4.33;;
7365;SDS011;3723;52.220;8.792;2023-11-21T09:17:21;22.30;;;4.53;;
7365;SDS011;3723;52.220;8.792;2023-11-21T09:19:48;21.73;;;4.83;;
7365;SDS011;3723;52.220;8.792;2023-11-21T09:22:16;17.77;;;4.77;;
7365;SDS011;3723;52.220;8.792;2023-11-21T09:24:43;15.53;;;3.93;;
7365;SDS011;3723;52.220;8.792;2023-11-21T09:27:10;15.57;;;3.90;;
7365;SDS011;3723;52.220;8.792;2023-11-21T09:29:37;18.90;;;4.43;;
7365;SDS011;3723;52.220;8.792;2023-11-21T09:32:05;13.13;;;3.80;;
7365;SDS011;3723;52.220;8.792;2023-11-21T09:34:35;19.33;;;4.43;;
7365;SDS011;3723;52.220;8.792;2023-11-21T09:37:03;15.63;;;4.20;;
7365;SDS011;3723;52.220;8.792;2023-11-21T09:39:31;19.20;;;4.47;;
7365;SDS011;3723;52.220;8.792;2023-11-21T09:42:02;19.17;;;5.23;;
7365;SDS011;3723;52.220;8.792;2023-11-21T09:44:34;13.17;;;4.10;;
7365;SDS011;3723;52.220;8.792;2023-11-21T09:47:03;13.80;;;4.43;;
7365;SDS011;3723;52.220;8.792;2023-11-21T09:49:35;15.57;;;5.20;;
7365;SDS011;3723;52.220;8.792;2023-11-21T09:52:03;14.07;;;4.43;;
7365;SDS011;3723;52.220;8.792;2023-11-21T09:54:33;16.97;;;4.30;;
7365;SDS011;3723;52.220;8.792;2023-11-21T09:57:01;18.17;;;5.07;;
7365;SDS011;3723;52.220;8.792;2023-11-21T09:59:30;15.77;;;5.50;;
7365;SDS011;3723;52.220;8.792;2023-11-21T10:01:58;14.83;;;4.77;;
7365;SDS011;3723;52.220;8.792;2023-11-21T10:04:25;17.50;;;5.93;;
7365;SDS011;3723;52.220;8.792;2023-11-21T10:06:55;16.40;;;4.60;;
7365;SDS011;3723;52.220;8.792;2023-11-21T10:09:23;15.73;;;4.77;;
7365;SDS011;3723;52.220;8.792;2023-11-21T10:11:52;13.73;;;3.77;;
7365;SDS011;3723;52.220;8.792;2023-11-21T10:14:19;17.67;;;4.67;;
7365;SDS011;3723;52.220;8.792;2023-11-21T10:16:54;17.77;;;4.33;;
7365;SDS011;3723;52.220;8.792;2023-11-21T10:19:22;15.20;;;4.30;;
7365;SDS011;3723;52.220;8.792;2023-11-21T10:21:50;15.83;;;4.43;;
7365;SDS011;3723;52.220;8.792;2023-11-21T10:24:19;14.20;;;5.03;;
7365;SDS011;3723;52.220;8.792;2023-11-21T10:26:46;14.03;;;5.20;;
7365;SDS011;3723;52.220;8.792;2023-11-21T10:29:16;26.63;;;6.63;;
7365;SDS011;3723;52.220;8.792;2023-11-21T10:31:43;18.43;;;5.83;;
7365;SDS011;3723;52.220;8.792;2023-11-21T10:34:14;16.87;;;5.30;;
7365;SDS011;3723;52.220;8.792;2023-11-21T10:36:41;18.77;;;5.57;;
7365;SDS011;3723;52.220;8.792;2023-11-21T10:39:09;20.13;;;6.50;;
7365;SDS011;3723;52.220;8.792;2023-11-21T10:41:37;20.47;;;6.47;;
7365;SDS011;3723;52.220;8.792;2023-11-21T10:44:05;20.57;;;7.00;;
7365;SDS011;3723;52.220;8.792;2023-11-21T10:46:34;19.90;;;6.53;;
7365;SDS011;3723;52.220;8.792;2023-11-21T10:49:02;16.70;;;6.10;;
7365;SDS011;3723;52.220;8.792;2023-11-21T10:51:30;17.70;;;5.97;;
7365;SDS011;3723;52.220;8.792;2023-11-21T10:53:57;17.60;;;5.60;;
7365;SDS011;3723;52.220;8.792;2023-11-21T10:56:25;16.90;;;5.90;;
7365;SDS011;3723;52.220;8.792;2023-11-21T10:58:56;26.00;;;7.47;;
7365;SDS011;3723;52.220;8.792;2023-11-21T11:01:24;15.67;;;5.73;;
7365;SDS011;3723;52.220;8.792;2023-11-21T11:03:54;17.70;;;6.53;;
7365;SDS011;3723;52.220;8.792;2023-11-21T11:06:22;20.60;;;7.20;;
7365;SDS011;3723;52.220;8.792;2023-11-21T11:08:52;17.67;;;5.70;;
7365;SDS011;3723;52.220;8.792;2023-11-21T11:11:20;16.57;;;5.30;;
7365;SDS011;3723;52.220;8.792;2023-11-21T11:13:47;15.90;;;6.13;;
7365;SDS011;3723;52.220;8.792;2023-11-21T11:16:16;16.70;;;6.20;;
7365;SDS011;3723;52.220;8.792;2023-11-21T11:18:43;15.47;;;5.23;;
7365;SDS011;3723;52.220;8.792;2023-11-21T11:21:15;17.10;;;5.20;;
7365;SDS011;3723;52.220;8.792;2023-11-21T11:23:55;26.23;;;7.43;;
7365;SDS011;3723;52.220;8.792;2023-11-21T11:26:36;16.13;;;6.03;;
7365;SDS011;3723;52.220;8.792;2023-11-21T11:29:11;13.23;;;5.00;;
7365;SDS011;3723;52.220;8.792;2023-11-21T11:31:48;13.40;;;5.03;;
7365;SDS011;3723;52.220;8.792;2023-11-21T11:34:23;13.30;;;4.60;;
7365;SDS011;3723;52.220;8.792;2023-11-21T11:36:59;18.67;;;6.30;;
7365;SDS011;3723;52.220;8.792;2023-11-21T11:39:29;19.93;;;5.23;;
7365;SDS011;3723;52.220;8.792;2023-11-21T11:41:57;11.83;;;3.40;;
7365;SDS011;3723;52.220;8.792;2023-11-21T11:47:23;15.33;;;6.10;;
7365;SDS011;3723;52.220;8.792;2023-11-21T11:49:56;10.40;;;3.40;;
7365;SDS011;3723;52.220;8.792;2023-11-21T11:52:34;9.80;;;2.90;;
7365;SDS011;3723;52.220;8.792;2023-11-21T11:55:03;12.57;;;3.70;;
7365;SDS011;3723;52.220;8.792;2023-11-21T11:57:32;13.70;;;3.50;;
7365;SDS011;3723;52.220;8.792;2023-11-21T12:00:14;12.90;;;4.60;;
7365;SDS011;3723;52.220;8.792;2023-11-21T12:02:46;10.47;;;3.10;;
7365;SDS011;3723;52.220;8.792;2023-11-21T12:05:14;9.20;;;2.97;;
7365;SDS011;3723;52.220;8.792;2023-11-21T12:07:45;13.13;;;3.60;;
7365;SDS011;3723;52.220;8.792;2023-11-21T12:10:13;9.70;;;2.90;;
7365;SDS011;3723;52.220;8.792;2023-11-21T12:12:43;11.50;;;2.90;;
7365;SDS011;3723;52.220;8.792;2023-11-21T12:15:11;9.00;;;2.10;;
7365;SDS011;3723;52.220;8.792;2023-11-21T12:17:39;13.00;;;3.17;;
7365;SDS011;3723;52.220;8.792;2023-11-21T12:20:10;12.27;;;3.47;;
7365;SDS011;3723;52.220;8.792;2023-11-21T12:22:42;10.60;;;3.57;;
7365;SDS011;3723;52.220;8.792;2023-11-21T12:25:13;9.13;;;2.50;;
7365;SDS011;3723;52.220;8.792;2023-11-21T12:27:42;10.00;;;3.00;;
7365;SDS011;3723;52.220;8.792;2023-11-21T12:30:11;9.00;;;2.10;;
7365;SDS011;3723;52.220;8.792;2023-11-21T12:32:41;10.10;;;3.00;;
7365;SDS011;3723;52.220;8.792;2023-11-21T12:35:10;10.83;;;2.70;;
7365;SDS011;3723;52.220;8.792;2023-11-21T12:37:37;10.77;;;3.03;;
7365;SDS011;3723;52.220;8.792;2023-11-21T12:40:05;10.47;;;3.10;;
7365;SDS011;3723;52.220;8.792;2023-11-21T12:42:36;10.33;;;3.23;;
7365;SDS011;3723;52.220;8.792;2023-11-21T12:45:08;12.57;;;4.17;;
7365;SDS011;3723;52.220;8.792;2023-11-21T12:47:40;11.53;;;3.27;;
7365;SDS011;3723;52.220;8.792;2023-11-21T12:50:10;10.27;;;2.97;;
7365;SDS011;3723;52.220;8.792;2023-11-21T12:52:42;14.50;;;3.40;;
7365;SDS011;3723;52.220;8.792;2023-11-21T12:55:13;10.10;;;3.17;;
7365;SDS011;3723;52.220;8.792;2023-11-21T12:57:42;9.63;;;2.57;;
7365;SDS011;3723;52.220;8.792;2023-11-21T13:00:10;10.67;;;3.00;;
7365;SDS011;3723;52.220;8.792;2023-11-21T13:02:53;11.20;;;2.70;;
7365;SDS011;3723;52.220;8.792;2023-11-21T13:05:28;10.90;;;3.23;;
7365;SDS011;3723;52.220;8.792;2023-11-21T13:07:58;12.33;;;3.00;;
7365;SDS011;3723;52.220;8.792;2023-11-21T13:10:28;10.83;;;2.40;;
7365;SDS011;3723;52.220;8.792;2023-11-21T13:12:56;10.27;;;2.80;;
7365;SDS011;3723;52.220;8.792;2023-11-21T13:15:25;11.00;;;2.80;;
7365;SDS011;3723;52.220;8.792;2023-11-21T13:17:53;11.30;;;3.50;;
7365;SDS011;3723;52.220;8.792;2023-11-21T13:20:21;9.40;;;2.40;;
7365;SDS011;3723;52.220;8.792;2023-11-21T13:22:52;11.07;;;2.97;;
7365;SDS011;3723;52.220;8.792;2023-11-21T13:25:22;13.10;;;3.90;;
7365;SDS011;3723;52.220;8.792;2023-11-21T13:27:52;10.87;;;3.00;;
7365;SDS011;3723;52.220;8.792;2023-11-21T13:30:19;9.67;;;2.37;;
7365;SDS011;3723;52.220;8.792;2023-11-21T13:32:51;10.63;;;3.33;;
7365;SDS011;3723;52.220;8.792;2023-11-21T13:35:18;10.80;;;2.77;;
7365;SDS011;3723;52.220;8.792;2023-11-21T13:37:57;9.07;;;2.57;;
7365;SDS011;3723;52.220;8.792;2023-11-21T13:40:30;9.50;;;2.30;;
7365;SDS011;3723;52.220;8.792;2023-11-21T13:42:59;11.60;;;2.60;;
7365;SDS011;3723;52.220;8.792;2023-11-21T13:45:30;8.53;;;2.50;;
7365;SDS011;3723;52.220;8.792;2023-11-21T13:47:57;12.03;;;3.27;;
7365;SDS011;3723;52.220;8.792;2023-11-21T13:50:26;11.10;;;2.97;;
7365;SDS011;3723;52.220;8.792;2023-11-21T13:52:59;9.50;;;2.60;;
7365;SDS011;3723;52.220;8.792;2023-11-21T13:55:31;10.77;;;3.27;;
7365;SDS011;3723;52.220;8.792;2023-11-21T13:57:57;11.03;;;3.00;;
7365;SDS011;3723;52.220;8.792;2023-11-21T14:00:24;10.73;;;3.17;;
7365;SDS011;3723;52.220;8.792;2023-11-21T14:03:10;10.23;;;2.97;;
7365;SDS011;3723;52.220;8.792;2023-11-21T14:05:44;12.33;;;3.20;;
7365;SDS011;3723;52.220;8.792;2023-11-21T14:08:26;9.37;;;2.30;;
7365;SDS011;3723;52.220;8.792;2023-11-21T14:10:54;10.53;;;2.80;;
7365;SDS011;3723;52.220;8.792;2023-11-21T14:13:22;10.10;;;2.77;;
7365;SDS011;3723;52.220;8.792;2023-11-21T14:15:49;8.83;;;2.90;;
7365;SDS011;3723;52.220;8.792;2023-11-21T14:18:17;10.10;;;2.37;;
7365;SDS011;3723;52.220;8.792;2023-11-21T14:20:52;11.30;;;3.80;;
7365;SDS011;3723;52.220;8.792;2023-11-21T14:23:19;9.90;;;2.77;;
7365;SDS011;3723;52.220;8.792;2023-11-21T14:25:49;9.87;;;3.13;;
7365;SDS011;3723;52.220;8.792;2023-11-21T14:28:17;10.73;;;3.20;;
7365;SDS011;3723;52.220;8.792;2023-11-21T14:30:44;11.50;;;3.80;;
7365;SDS011;3723;52.220;8.792;2023-11-21T14:33:12;10.50;;;3.13;;
7365;SDS011;3723;52.220;8.792;2023-11-21T14:35:39;11.90;;;3.20;;
7365;SDS011;3723;52.220;8.792;2023-11-21T14:40:54;9.20;;;2.57;;
7365;SDS011;3723;52.220;8.792;2023-11-21T14:43:22;10.43;;;3.47;;
7365;SDS011;3723;52.220;8.792;2023-11-21T14:45:49;9.20;;;2.60;;
7365;SDS011;3723;52.220;8.792;2023-11-21T14:48:17;10.20;;;3.30;;
7365;SDS011;3723;52.220;8.792;2023-11-21T14:51:08;9.40;;;2.53;;
7365;SDS011;3723;52.220;8.792;2023-11-21T14:53:53;10.27;;;3.30;;
7365;SDS011;3723;52.220;8.792;2023-11-21T14:56:28;10.33;;;2.73;;
7365;SDS011;3723;52.220;8.792;2023-11-21T14:59:09;9.87;;;3.07;;
7365;SDS011;3723;52.220;8.792;2023-11-21T15:01:52;10.10;;;2.97;;
7365;SDS011;3723;52.220;8.792;2023-11-21T15:04:20;10.17;;;2.80;;
7365;SDS011;3723;52.220;8.792;2023-11-21T15:07:00;12.87;;;3.30;;
7365;SDS011;3723;52.220;8.792;2023-11-21T15:09:29;12.87;;;3.60;;
7365;SDS011;3723;52.220;8.792;2023-11-21T15:12:12;9.90;;;2.93;;